Time;durP1;ratioP1;P1;durP2;ratioP2;P2;SDS_P1;SDS_P2;PMS_P1;PMS_P2;Temp;Humidity;BMP_temperature;BMP_pressure;BME280_temperature;BME280_humidity;BME280_pressure;Samples;Min_cycle;Max_cycle;Signal;HPM_P1;HPM_P2
2023/12/29 00:01:06;;;;;;;8.77;5.50;;;;;;;5.95;75.85;100039.38;4992168;28;20212;-59
2023/12/29 00:03:36;;;;;;;9.10;5.97;;;;;;;5.93;75.89;100041.94;4987958;28;20739;-60
2023/12/29 00:06:05;;;;;;;8.17;5.60;;;;;;;5.95;76.61;100039.38;4990795;28;20552;-60
2023/12/29 00:08:32;;;;;;;9.33;5.40;;;;;;;5.95;75.83;100045.34;4991996;28;20270;-60
2023/12/29 00:11:00;;;;;;;8.70;5.67;;;;;;;5.97;76.64;100037.72;4991154;28;20204;-61
2023/12/29 00:13:29;;;;;;;9.33;5.77;;;;;;;5.96;75.94;100036.81;4991701;28;20212;-60
2023/12/29 00:15:58;;;;;;;8.87;5.30;;;;;;;5.98;76.69;100026.63;4991744;28;20655;-61
2023/12/29 00:18:26;;;;;;;8.20;5.00;;;;;;;5.99;75.87;100033.44;4991596;28;20216;-59
2023/12/29 00:20:54;;;;;;;8.13;5.37;;;;;;;6.02;75.51;100039.44;4991349;28;20683;-58
2023/12/29 00:23:34;;;;;;;9.03;5.50;;;;;;;6.03;76.13;100032.59;4994224;28;20793;-59
2023/12/29 00:26:02;;;;;;;7.97;5.33;;;;;;;6.06;75.47;100027.53;4995485;28;20203;-60
2023/12/29 00:28:30;;;;;;;7.17;4.80;;;;;;;6.09;75.76;100026.69;4986907;28;20212;-63
2023/12/29 00:31:00;;;;;;;9.87;5.00;;;;;;;6.10;76.01;100029.25;4995575;28;20207;-59
2023/12/29 00:33:31;;;;;;;9.17;5.00;;;;;;;6.13;75.34;100026.72;4989407;28;20208;-61
2023/12/29 00:36:00;;;;;;;9.23;5.07;;;;;;;6.14;75.38;100023.31;4994212;28;20208;-60
2023/12/29 00:38:28;;;;;;;10.33;5.17;;;;;;;6.12;75.16;100012.22;4995746;28;20563;-60
2023/12/29 00:40:56;;;;;;;7.67;5.00;;;;;;;6.12;75.69;100014.78;4995764;28;20671;-54
2023/12/29 00:43:24;;;;;;;7.20;5.20;;;;;;;6.12;75.69;100019.91;4995616;28;20208;-61
2023/12/29 00:45:52;;;;;;;7.00;4.73;;;;;;;6.13;75.10;100034.38;4995206;28;20208;-63
2023/12/29 00:48:21;;;;;;;10.67;5.67;;;;;;;6.10;75.05;100016.47;4995455;28;20208;-63
2023/12/29 00:50:49;;;;;;;7.80;5.20;;;;;;;6.10;75.44;100028.41;4993788;28;20200;-60
2023/12/29 00:53:17;;;;;;;6.83;4.83;;;;;;;6.07;74.94;100024.09;4995373;28;20200;-61
2023/12/29 00:55:45;;;;;;;8.17;5.37;;;;;;;6.04;75.23;100017.28;4995322;28;20215;-62
2023/12/29 00:58:13;;;;;;;8.60;4.80;;;;;;;6.03;75.39;100013.00;4995118;28;20259;-61
2023/12/29 01:00:41;;;;;;;8.80;4.93;;;;;;;6.02;75.50;100030.91;4995301;28;20208;-60
2023/12/29 01:03:09;;;;;;;7.63;4.90;;;;;;;6.00;74.84;100013.00;4994846;28;20235;-63
2023/12/29 01:05:39;;;;;;;7.30;4.93;;;;;;;6.00;75.67;100027.47;4995284;28;20266;-62
2023/12/29 01:08:07;;;;;;;8.07;4.80;;;;;;;5.97;74.95;100022.38;4993535;28;20227;-62
2023/12/29 01:10:35;;;;;;;7.57;4.33;;;;;;;5.96;74.91;100016.38;4994895;28;20208;-62
2023/12/29 01:13:03;;;;;;;6.47;4.17;;;;;;;5.95;74.96;100021.47;4994819;28;20215;-61
2023/12/29 01:15:31;;;;;;;6.57;4.40;;;;;;;5.92;74.92;100024.88;4994943;28;20650;-62
2023/12/29 01:17:59;;;;;;;6.40;4.57;;;;;;;5.91;75.33;100022.28;4994901;28;20231;-61
2023/12/29 01:20:27;;;;;;;6.83;4.63;;;;;;;5.90;74.85;100005.22;4994612;28;20208;-62
2023/12/29 01:22:56;;;;;;;8.57;4.20;;;;;;;5.95;74.03;100008.69;4994549;28;20606;-62
2023/12/29 01:25:25;;;;;;;8.17;4.50;;;;;;;5.97;74.18;100007.03;4993130;28;20200;-62
2023/12/29 01:27:53;;;;;;;9.20;4.43;;;;;;;5.97;73.87;99999.34;4994469;28;20243;-63
2023/12/29 01:30:21;;;;;;;7.20;4.93;;;;;;;5.95;74.34;99993.34;4994621;28;20623;-63
2023/12/29 01:32:49;;;;;;;6.10;4.17;;;;;;;5.95;73.69;99990.78;4993357;28;20208;-61
2023/12/29 01:35:17;;;;;;;8.53;4.97;;;;;;;5.92;74.17;100000.97;4994431;28;20239;-61
2023/12/29 01:37:47;;;;;;;6.37;4.17;;;;;;;5.88;73.85;100001.78;4994523;28;20208;-62
2023/12/29 01:40:17;;;;;;;8.57;5.30;;;;;;;5.85;74.49;99992.38;4993127;28;20246;-65
2023/12/29 01:42:45;;;;;;;8.13;4.67;;;;;;;5.83;73.44;99983.88;4994268;28;20254;-62
2023/12/29 01:45:22;;;;;;;7.80;4.90;;;;;;;5.78;73.92;99991.53;4994288;28;20204;-63
2023/12/29 01:47:52;;;;;;;7.80;4.80;;;;;;;5.76;74.26;99972.75;4986811;28;20302;-61
2023/12/29 01:50:21;;;;;;;8.60;4.80;;;;;;;5.74;73.93;99971.91;4994444;28;20643;-64
2023/12/29 01:52:51;;;;;;;10.07;5.13;;;;;;;5.68;74.57;99964.19;4986040;28;20252;-61
2023/12/29 01:55:21;;;;;;;8.03;5.40;;;;;;;5.64;74.76;99970.13;4994453;28;20255;-62
2023/12/29 01:57:50;;;;;;;8.67;4.83;;;;;;;5.60;74.87;99963.28;4993166;28;20568;-61
2023/12/29 02:00:19;;;;;;;7.83;4.97;;;;;;;5.57;74.99;99960.69;4993989;28;20208;-60
2023/12/29 02:02:47;;;;;;;7.47;4.87;;;;;;;5.53;75.49;99951.28;4993759;28;20227;-62
2023/12/29 02:05:16;;;;;;;8.43;5.17;;;;;;;5.50;75.11;99953.81;4994118;28;20204;-63
2023/12/29 02:07:44;;;;;;;7.37;4.40;;;;;;;5.51;75.54;99940.19;4994074;28;20212;-62
2023/12/29 02:10:15;;;;;;;8.40;5.10;;;;;;;5.50;75.13;99947.00;4994083;28;20685;-62
2023/12/29 02:12:47;;;;;;;7.07;5.00;;;;;;;5.46;75.34;99940.16;4994112;28;20548;-62
2023/12/29 02:15:15;;;;;;;6.83;4.73;;;;;;;5.44;75.75;99938.44;4991057;28;20428;-61
2023/12/29 02:17:48;;;;;;;7.43;5.07;;;;;;;5.41;75.73;99936.69;4988477;28;20216;-61
2023/12/29 02:20:17;;;;;;;8.43;4.97;;;;;;;5.38;75.63;99931.59;4993493;28;20227;-61
2023/12/29 02:22:45;;;;;;;11.87;5.87;;;;;;;5.35;76.07;99930.72;4993425;28;20346;-60
2023/12/29 02:25:15;;;;;;;8.10;5.47;;;;;;;5.31;76.00;99920.47;4993835;28;20578;-61
2023/12/29 02:27:50;;;;;;;7.57;5.13;;;;;;;5.29;76.11;99929.78;4993697;28;20208;-61
2023/12/29 02:30:23;;;;;;;9.77;5.33;;;;;;;5.26;76.46;99924.66;4993468;28;20195;-61
2023/12/29 02:32:58;;;;;;;7.43;5.03;;;;;;;5.25;76.72;99917.84;4992078;28;20230;-60
2023/12/29 02:35:29;;;;;;;8.67;5.20;;;;;;;5.23;76.17;99923.81;4993585;28;20996;-61
2023/12/29 02:37:57;;;;;;;8.23;5.87;;;;;;;5.21;76.90;99916.13;4993361;28;20232;-63
2023/12/29 02:40:28;;;;;;;10.70;6.27;;;;;;;5.19;76.82;99915.28;4993245;28;20236;-62
2023/12/29 02:42:56;;;;;;;8.30;5.53;;;;;;;5.17;76.63;99918.66;4993185;28;20228;-61
2023/12/29 02:45:24;;;;;;;8.90;5.87;;;;;;;5.15;76.99;99908.41;4989167;28;20295;-62
2023/12/29 02:47:52;;;;;;;10.27;5.80;;;;;;;5.13;77.17;99911.81;4992167;28;20622;-60
2023/12/29 02:50:20;;;;;;;9.47;5.90;;;;;;;5.08;77.17;99904.97;4992964;28;20274;-62
2023/12/29 02:52:48;;;;;;;9.10;5.83;;;;;;;5.04;77.50;99913.44;4993284;28;20200;-63
2023/12/29 02:55:16;;;;;;;7.90;5.33;;;;;;;4.99;77.65;99911.69;4993238;28;20549;-63
2023/12/29 02:57:45;;;;;;;7.57;5.77;;;;;;;4.94;78.05;99915.91;4993029;28;20204;-61
2023/12/29 03:00:14;;;;;;;10.27;5.77;;;;;;;4.89;78.02;99910.72;4993041;28;20367;-61
2023/12/29 03:02:42;;;;;;;10.43;6.00;;;;;;;4.85;78.32;99906.44;4992708;28;20238;-61
2023/12/29 03:05:10;;;;;;;9.57;6.40;;;;;;;4.83;78.41;99913.25;4991444;28;20632;-62
2023/12/29 03:07:39;;;;;;;11.57;6.60;;;;;;;4.78;78.69;99918.28;4992666;28;20294;-59
2023/12/29 03:10:08;;;;;;;8.90;6.37;;;;;;;4.76;78.92;99909.78;4992582;28;20208;-61
2023/12/29 03:12:36;;;;;;;11.63;6.70;;;;;;;4.75;79.01;99912.28;4979286;28;20255;-62
2023/12/29 03:15:06;;;;;;;10.90;6.70;;;;;;;4.73;79.60;99907.19;4992774;28;20212;-62
2023/12/29 03:17:34;;;;;;;9.97;6.43;;;;;;;4.71;79.49;99903.75;4992406;28;20248;-62
2023/12/29 03:20:04;;;;;;;9.50;6.60;;;;;;;4.71;79.30;99908.84;4992569;28;20641;-62
2023/12/29 03:22:32;;;;;;;11.03;6.70;;;;;;;4.69;79.60;99896.94;4990998;28;20240;-62
2023/12/29 03:25:00;;;;;;;12.63;7.07;;;;;;;4.67;79.67;99890.94;4992351;28;20212;-62
2023/12/29 03:27:29;;;;;;;11.90;6.57;;;;;;;4.65;80.13;99905.41;4992597;28;20611;-65
2023/12/29 03:29:56;;;;;;;10.80;6.63;;;;;;;4.63;80.20;99899.41;4992334;28;20208;-65
2023/12/29 03:32:26;;;;;;;11.60;6.73;;;;;;;4.59;80.41;99895.97;4992678;28;20706;-60
2023/12/29 03:34:54;;;;;;;13.27;6.80;;;;;;;4.56;80.83;99898.50;4992345;28;20227;-62
2023/12/29 03:37:22;;;;;;;11.57;6.37;;;;;;;4.54;80.68;99889.97;4992453;28;20599;-62
2023/12/29 03:39:50;;;;;;;11.40;7.17;;;;;;;4.53;80.58;99888.28;4990591;28;20294;-64
2023/12/29 03:42:18;;;;;;;10.73;6.90;;;;;;;4.49;80.56;99886.50;4981613;28;20751;-61
2023/12/29 03:44:46;;;;;;;12.77;8.00;;;;;;;4.47;80.87;99891.59;4992024;28;20204;-61
2023/12/29 03:47:13;;;;;;;14.43;8.03;;;;;;;4.45;80.84;99889.88;4991913;28;20208;-62
2023/12/29 03:49:43;;;;;;;11.57;7.40;;;;;;;4.41;81.23;99888.13;4992357;28;20699;-61
2023/12/29 03:52:11;;;;;;;13.20;7.90;;;;;;;4.36;81.63;99886.38;4990047;28;20690;-60
2023/12/29 03:54:38;;;;;;;12.23;7.93;;;;;;;4.34;81.64;99877.88;4991900;28;20206;-60
2023/12/29 03:57:06;;;;;;;13.87;8.37;;;;;;;4.32;81.69;99881.25;4990357;28;20581;-62
2023/12/29 03:59:37;;;;;;;14.70;7.83;;;;;;;4.32;81.78;99884.66;4992063;28;20200;-59
2023/12/29 04:02:05;;;;;;;12.20;8.27;;;;;;;4.29;82.26;99884.59;4992309;28;20709;-63
2023/12/29 04:04:33;;;;;;;10.97;7.70;;;;;;;4.25;81.88;99877.75;4992168;28;20687;-60
2023/12/29 04:07:02;;;;;;;17.43;8.97;;;;;;;4.21;82.57;99876.03;4991726;28;20204;-61
2023/12/29 04:09:31;;;;;;;14.47;8.03;;;;;;;4.19;82.45;99881.94;4992115;28;20195;-62
2023/12/29 04:11:59;;;;;;;13.03;8.50;;;;;;;4.17;82.74;99884.47;4990493;28;20361;-62
2023/12/29 04:14:27;;;;;;;13.50;8.67;;;;;;;4.16;82.87;99872.56;4991918;28;20204;-61
2023/12/29 04:16:55;;;;;;;13.90;8.40;;;;;;;4.15;82.87;99873.38;4991492;28;20247;-62
2023/12/29 04:19:23;;;;;;;14.80;8.97;;;;;;;4.16;83.03;99871.69;4991720;28;20239;-61
2023/12/29 04:21:51;;;;;;;15.60;9.00;;;;;;;4.16;83.52;99882.78;4991876;28;20730;-60
2023/12/29 04:24:21;;;;;;;13.70;7.93;;;;;;;4.10;83.38;99865.69;4990435;28;20306;-63
2023/12/29 04:26:49;;;;;;;13.17;8.50;;;;;;;4.17;83.47;99865.78;4991665;28;20204;-63
2023/12/29 04:29:16;;;;;;;16.23;9.03;;;;;;;4.15;83.54;99860.63;4990243;28;20659;-63
2023/12/29 04:31:44;;;;;;;11.80;8.27;;;;;;;4.16;83.50;99851.28;4991357;28;20214;-63
2023/12/29 04:34:12;;;;;;;12.97;8.40;;;;;;;4.14;83.56;99838.53;4991693;28;20216;-60
2023/12/29 04:36:40;;;;;;;12.73;8.10;;;;;;;4.14;83.51;99848.75;4991710;28;20649;-60
2023/12/29 04:39:09;;;;;;;12.73;8.43;;;;;;;4.14;83.62;99838.53;4991760;28;20283;-65
2023/12/29 04:41:38;;;;;;;11.57;8.23;;;;;;;4.16;83.87;99846.19;4991356;28;20210;-61
2023/12/29 04:44:06;;;;;;;14.27;8.40;;;;;;;4.15;84.05;99853.00;4991472;28;20255;-61
2023/12/29 04:46:34;;;;;;;12.80;8.17;;;;;;;4.16;84.17;99852.19;4990494;28;20567;-59
2023/12/29 04:49:02;;;;;;;13.33;8.37;;;;;;;4.18;83.99;99854.72;4991437;28;20208;-61
2023/12/29 04:51:31;;;;;;;14.17;8.30;;;;;;;4.16;83.79;99859.81;4991533;28;20208;-62
2023/12/29 04:53:59;;;;;;;12.80;8.50;;;;;;;4.17;83.76;99853.88;4990376;28;20212;-60
2023/12/29 04:56:26;;;;;;;12.83;8.10;;;;;;;4.19;83.74;99851.34;4991703;28;20212;-61
2023/12/29 04:58:56;;;;;;;11.70;7.97;;;;;;;4.22;83.93;99856.47;4991262;28;20225;-61
2023/12/29 05:01:24;;;;;;;13.63;9.03;;;;;;;4.22;83.96;99849.69;4991576;28;20570;-61
2023/12/29 05:03:52;;;;;;;14.50;8.73;;;;;;;4.23;83.49;99846.28;4989703;28;20282;-62
2023/12/29 05:06:20;;;;;;;11.53;8.70;;;;;;;4.24;83.87;99850.56;4991789;28;20643;-61
2023/12/29 05:08:48;;;;;;;11.87;8.07;;;;;;;4.26;83.84;99848.00;4994857;28;20216;-66
2023/12/29 05:11:16;;;;;;;13.90;7.80;;;;;;;4.27;83.85;99840.41;4994806;28;20208;-61
2023/12/29 05:13:44;;;;;;;11.37;8.20;;;;;;;4.30;84.03;99854.84;4995079;28;20686;-61
2023/12/29 05:16:14;;;;;;;15.13;8.73;;;;;;;4.33;84.09;99845.53;4993523;28;20211;-61
2023/12/29 05:18:42;;;;;;;14.23;8.40;;;;;;;4.38;83.79;99849.84;4994658;28;20208;-62
2023/12/29 05:21:15;;;;;;;12.37;8.40;;;;;;;4.43;84.10;99840.56;4994629;28;20211;-62
2023/12/29 05:23:44;;;;;;;12.43;8.03;;;;;;;4.46;83.93;99841.44;4995164;28;20690;-62
2023/12/29 05:26:12;;;;;;;10.83;7.90;;;;;;;4.51;83.34;99833.81;4994992;28;20636;-60
2023/12/29 05:28:40;;;;;;;10.77;7.23;;;;;;;4.56;83.56;99833.00;4994530;28;20204;-62
2023/12/29 05:31:08;;;;;;;12.53;8.13;;;;;;;4.61;83.41;99830.53;4993391;28;20663;-63
2023/12/29 05:33:38;;;;;;;10.73;7.87;;;;;;;4.66;83.36;99845.88;4994478;28;20211;-64
2023/12/29 05:36:11;;;;;;;11.73;7.47;;;;;;;4.72;83.57;99840.81;4988281;28;20223;-62
2023/12/29 05:38:41;;;;;;;10.67;7.33;;;;;;;4.76;83.44;99837.47;4992918;28;20223;-62
2023/12/29 05:41:08;;;;;;;11.17;6.70;;;;;;;4.82;82.97;99832.38;4994560;28;20235;-62
2023/12/29 05:43:36;;;;;;;11.03;6.87;;;;;;;4.87;82.86;99829.88;4994153;28;20246;-60
2023/12/29 05:46:10;;;;;;;11.00;7.43;;;;;;;4.92;82.84;99833.31;4994552;28;20687;-62
2023/12/29 05:48:40;;;;;;;11.13;6.90;;;;;;;4.97;82.57;99831.66;4993217;28;20620;-61
2023/12/29 05:51:09;;;;;;;8.63;6.47;;;;;;;5.02;82.37;99840.22;4994228;28;20686;-61
2023/12/29 05:53:38;;;;;;;10.73;6.37;;;;;;;5.07;82.50;99833.44;4994008;28;20211;-61
2023/12/29 05:56:06;;;;;;;9.83;6.77;;;;;;;5.12;82.37;99834.34;4994194;28;20230;-64
2023/12/29 05:58:34;;;;;;;9.10;6.20;;;;;;;5.18;81.93;99838.63;4993973;28;20259;-62
2023/12/29 06:01:02;;;;;;;9.27;6.47;;;;;;;5.24;82.33;99831.00;4983035;28;20239;-61
2023/12/29 06:03:30;;;;;;;12.77;6.77;;;;;;;5.29;82.04;99830.19;4992447;28;20240;-64
2023/12/29 06:05:59;;;;;;;10.93;6.33;;;;;;;5.36;81.71;99820.84;4993972;28;20212;-61
2023/12/29 06:08:27;;;;;;;10.43;6.37;;;;;;;5.44;81.23;99823.44;4994133;28;20208;-61
2023/12/29 06:10:55;;;;;;;9.83;5.70;;;;;;;5.47;80.83;99826.03;4994061;28;20723;-63
2023/12/29 06:13:23;;;;;;;8.50;5.60;;;;;;;5.52;81.09;99803.91;4993782;28;20204;-62
2023/12/29 06:15:51;;;;;;;8.70;5.50;;;;;;;5.57;80.41;99808.19;4993820;28;20647;-61
2023/12/29 06:18:19;;;;;;;9.47;6.07;;;;;;;5.62;80.76;99810.75;4991738;28;20239;-61
2023/12/29 06:20:47;;;;;;;8.33;5.57;;;;;;;5.66;80.39;99809.94;4993909;28;20570;-59
2023/12/29 06:23:17;;;;;;;7.63;5.73;;;;;;;5.72;80.50;99809.97;4993510;28;20774;-63
2023/12/29 06:25:45;;;;;;;7.50;5.57;;;;;;;5.76;79.63;99798.91;4993705;28;20298;-61
2023/12/29 06:28:12;;;;;;;8.93;5.70;;;;;;;5.80;79.48;99810.00;4993693;28;20679;-64
2023/12/29 06:30:40;;;;;;;6.83;5.00;;;;;;;5.86;79.42;99793.84;4993598;28;20200;-63
2023/12/29 06:33:09;;;;;;;6.43;4.93;;;;;;;5.89;79.63;99796.38;4992429;28;20204;-61
2023/12/29 06:35:38;;;;;;;8.30;5.30;;;;;;;5.92;78.23;99809.19;4993376;28;20196;-61
2023/12/29 06:38:06;;;;;;;6.60;4.67;;;;;;;5.96;77.57;99813.50;4993386;28;20386;-62
2023/12/29 06:40:36;;;;;;;6.80;5.07;;;;;;;5.95;78.51;99807.53;4993155;28;20254;-60
2023/12/29 06:43:04;;;;;;;9.30;5.33;;;;;;;5.95;78.35;99793.88;4993043;28;20261;-61
2023/12/29 06:45:32;;;;;;;6.97;5.03;;;;;;;5.93;77.66;99801.56;4993059;28;20215;-68
2023/12/29 06:48:00;;;;;;;6.30;4.50;;;;;;;5.92;77.84;99799.84;4992068;28;20204;-62
2023/12/29 06:50:28;;;;;;;8.70;4.70;;;;;;;5.91;78.13;99798.09;4993563;28;20219;-62
2023/12/29 06:52:56;;;;;;;7.03;4.70;;;;;;;5.92;77.62;99789.59;4993280;28;20568;-61
2023/12/29 06:55:25;;;;;;;6.07;4.20;;;;;;;5.91;78.05;99799.81;4993337;28;20719;-62
2023/12/29 06:57:55;;;;;;;6.77;5.03;;;;;;;5.92;77.90;99804.06;4993244;28;20624;-61
2023/12/29 07:00:23;;;;;;;7.33;4.87;;;;;;;5.94;77.71;99807.53;4993223;28;20204;-60
2023/12/29 07:02:51;;;;;;;7.17;4.47;;;;;;;5.95;77.44;99809.22;4992658;28;20236;-61
2023/12/29 07:05:19;;;;;;;8.57;5.17;;;;;;;5.95;77.94;99804.97;4991369;28;20294;-62
2023/12/29 07:07:47;;;;;;;7.03;4.73;;;;;;;5.92;77.82;99792.16;4992658;28;20208;-61
2023/12/29 07:10:15;;;;;;;6.83;4.83;;;;;;;5.89;77.68;99799.81;4991746;28;20624;-62
2023/12/29 07:12:43;;;;;;;8.87;4.53;;;;;;;5.88;77.72;99787.00;4993050;28;20211;-61
2023/12/29 07:15:14;;;;;;;6.27;4.43;;;;;;;5.85;77.33;99787.00;4992632;28;20207;-61
2023/12/29 07:17:42;;;;;;;7.93;4.40;;;;;;;5.85;77.80;99781.88;4989939;28;20200;-62
2023/12/29 07:20:11;;;;;;;8.60;5.40;;;;;;;5.85;77.88;99772.50;4992538;28;20204;-63
2023/12/29 07:22:39;;;;;;;7.83;4.83;;;;;;;5.84;77.31;99778.47;4992435;28;20784;-62
2023/12/29 07:25:07;;;;;;;7.57;4.80;;;;;;;5.85;77.79;99776.78;4991102;28;20266;-63
2023/12/29 07:27:35;;;;;;;7.83;5.43;;;;;;;5.84;78.18;99764.84;4992612;28;20738;-62
2023/12/29 07:30:04;;;;;;;8.03;5.40;;;;;;;5.84;77.68;99769.97;4991912;28;20677;-61
2023/12/29 07:32:33;;;;;;;8.17;5.63;;;;;;;5.84;78.09;99769.97;4992512;28;20706;-63
2023/12/29 07:35:01;;;;;;;7.23;5.17;;;;;;;5.83;77.94;99769.09;4992433;28;20643;-64
2023/12/29 07:37:30;;;;;;;7.20;5.20;;;;;;;5.82;78.34;99765.69;4992528;28;20662;-62
2023/12/29 07:39:58;;;;;;;7.77;5.27;;;;;;;5.81;78.93;99766.53;4991015;28;20230;-65
2023/12/29 07:42:26;;;;;;;11.47;5.83;;;;;;;5.83;78.16;99769.09;4992396;28;20211;-64
2023/12/29 07:44:56;;;;;;;8.83;5.97;;;;;;;5.79;78.47;99768.25;4992402;28;20749;-62
2023/12/29 07:47:24;;;;;;;9.40;5.77;;;;;;;5.80;79.07;99764.81;4992016;28;20203;-61
2023/12/29 07:49:53;;;;;;;10.20;6.50;;;;;;;5.78;78.88;99766.53;4992245;28;20207;-63
2023/12/29 07:52:21;;;;;;;11.40;6.87;;;;;;;5.76;79.41;99770.78;4991916;28;20205;-62
2023/12/29 07:54:49;;;;;;;10.20;6.67;;;;;;;5.74;79.37;99764.84;4990444;28;20283;-62
2023/12/29 07:57:17;;;;;;;13.77;6.77;;;;;;;5.73;79.67;99769.91;4991972;28;20212;-61
2023/12/29 07:59:45;;;;;;;10.03;6.70;;;;;;;5.72;79.26;99765.66;4988076;28;20208;-62
2023/12/29 08:02:13;;;;;;;8.60;6.17;;;;;;;5.73;79.58;99765.66;4990690;28;20211;-64
2023/12/29 08:04:41;;;;;;;11.47;6.97;;;;;;;5.70;79.98;99757.97;4990881;28;20686;-58
2023/12/29 08:07:11;;;;;;;10.10;6.73;;;;;;;5.70;80.12;99763.09;4991801;28;20207;-62
2023/12/29 08:09:39;;;;;;;9.03;5.67;;;;;;;5.70;80.11;99755.41;4990794;28;20682;-63
2023/12/29 08:12:08;;;;;;;7.77;6.10;;;;;;;5.74;80.26;99753.72;4991929;28;20204;-63
2023/12/29 08:14:36;;;;;;;9.27;5.97;;;;;;;5.74;80.03;99751.16;4992059;28;20674;-62
2023/12/29 08:17:04;;;;;;;8.77;6.20;;;;;;;5.78;79.38;99755.44;4992005;28;20211;-62
2023/12/29 08:19:32;;;;;;;10.97;6.40;;;;;;;5.80;79.62;99746.94;4991744;28;20228;-63
2023/12/29 08:22:00;;;;;;;12.03;6.10;;;;;;;5.81;79.88;99751.19;4991557;28;20278;-62
2023/12/29 08:24:29;;;;;;;7.60;5.83;;;;;;;5.85;79.61;99743.53;4991898;28;20307;-61
2023/12/29 08:26:58;;;;;;;9.67;5.73;;;;;;;5.92;79.09;99752.94;4990644;28;20629;-60
2023/12/29 08:29:26;;;;;;;8.97;5.70;;;;;;;5.96;79.30;99744.44;4991713;28;20302;-63
2023/12/29 08:31:54;;;;;;;9.00;5.83;;;;;;;5.99;78.64;99740.19;4991824;28;20204;-62
2023/12/29 08:34:22;;;;;;;8.27;5.60;;;;;;;6.03;78.66;99736.78;4992052;28;20621;-62
2023/12/29 08:36:53;;;;;;;8.83;5.57;;;;;;;6.06;78.80;99741.06;4991899;28;20228;-62
2023/12/29 08:39:21;;;;;;;8.33;5.43;;;;;;;6.11;78.61;99741.06;4989874;28;20227;-62
2023/12/29 08:41:51;;;;;;;7.37;4.93;;;;;;;6.13;78.36;99737.66;4992783;28;20215;-60
2023/12/29 08:44:19;;;;;;;10.37;4.97;;;;;;;6.14;78.83;99746.19;4993407;28;20208;-60
2023/12/29 08:46:47;;;;;;;8.00;5.40;;;;;;;6.15;77.90;99745.31;4995463;28;20234;-62
2023/12/29 08:49:15;;;;;;;7.10;4.57;;;;;;;6.16;78.15;99753.03;4995509;28;20211;-62
2023/12/29 08:51:43;;;;;;;6.50;4.50;;;;;;;6.19;78.04;99747.06;4995190;28;20517;-61
2023/12/29 08:54:11;;;;;;;7.20;4.93;;;;;;;6.24;78.19;99750.47;4995236;28;20222;-62
2023/12/29 08:56:39;;;;;;;9.30;4.90;;;;;;;6.33;77.53;99739.38;4989979;28;20239;-61
2023/12/29 08:59:08;;;;;;;11.70;5.10;;;;;;;6.39;77.21;99740.25;4993816;28;20199;-62
2023/12/29 09:01:36;;;;;;;9.27;5.53;;;;;;;6.44;76.21;99740.25;4993997;28;20208;-63
2023/12/29 09:04:04;;;;;;;7.37;4.60;;;;;;;6.47;77.11;99727.44;4992315;28;20601;-60
2023/12/29 09:06:32;;;;;;;8.23;4.67;;;;;;;6.49;76.95;99731.72;4993216;28;20212;-62
2023/12/29 09:09:00;;;;;;;6.93;4.57;;;;;;;6.54;76.29;99744.50;4994824;28;20561;-63
2023/12/29 09:11:29;;;;;;;7.67;5.23;;;;;;;6.56;75.86;99727.47;4995121;28;20214;-61
2023/12/29 09:13:57;;;;;;;6.60;4.70;;;;;;;6.62;76.05;99735.13;4995034;28;20259;-62
2023/12/29 09:16:26;;;;;;;7.53;4.73;;;;;;;6.66;75.47;99728.28;4984629;28;20192;-61
2023/12/29 09:18:55;;;;;;;6.80;4.80;;;;;;;6.72;75.24;99726.59;4995231;28;20687;-61
2023/12/29 09:21:26;;;;;;;7.17;4.73;;;;;;;6.78;74.55;99726.59;4993697;28;20204;-63
2023/12/29 09:23:54;;;;;;;5.87;4.47;;;;;;;6.80;74.52;99720.59;4995029;28;20578;-61
2023/12/29 09:26:22;;;;;;;6.37;4.90;;;;;;;6.85;74.07;99713.75;4995028;28;20628;-61
2023/12/29 09:28:50;;;;;;;5.83;4.63;;;;;;;6.88;74.63;99703.50;4994886;28;20274;-61
2023/12/29 09:31:17;;;;;;;7.23;4.10;;;;;;;6.93;74.29;99723.16;4994426;28;20240;-61
2023/12/29 09:33:47;;;;;;;6.53;4.60;;;;;;;6.96;73.95;99709.50;4993224;28;20204;-64
2023/12/29 09:36:15;;;;;;;5.33;4.17;;;;;;;6.97;73.99;99724.84;4993049;28;20204;-63
2023/12/29 09:38:46;;;;;;;12.07;5.17;;;;;;;7.05;74.15;99716.28;4994747;28;20204;-63
2023/12/29 09:41:16;;;;;;;6.03;3.50;;;;;;;7.10;72.82;99712.84;4992778;28;20240;-62
2023/12/29 09:43:49;;;;;;;6.90;3.83;;;;;;;7.21;73.66;99721.34;4992798;28;20207;-63
2023/12/29 09:46:19;;;;;;;5.40;3.73;;;;;;;7.32;72.81;99710.22;4994712;28;20310;-64
2023/12/29 09:48:48;;;;;;;5.37;3.93;;;;;;;7.40;72.46;99708.47;4994671;28;20662;-62
2023/12/29 09:51:22;;;;;;;4.57;3.50;;;;;;;7.55;72.11;99721.25;4994260;28;20200;-63
2023/12/29 09:53:51;;;;;;;5.67;3.37;;;;;;;7.70;71.28;99716.03;4993466;28;20271;-62
2023/12/29 09:56:20;;;;;;;4.90;3.87;;;;;;;7.78;70.99;99710.84;4994154;28;20215;-60
2023/12/29 09:58:49;;;;;;;3.70;3.17;;;;;;;7.85;70.83;99716.81;4993143;28;20296;-64
2023/12/29 10:01:19;;;;;;;5.93;3.83;;;;;;;7.86;70.49;99713.38;4994367;28;20204;-63
2023/12/29 10:03:49;;;;;;;6.13;3.23;;;;;;;7.87;70.55;99704.81;4994185;28;20232;-67
2023/12/29 10:06:22;;;;;;;5.30;3.60;;;;;;;7.89;70.51;99709.09;4993799;28;20208;-63
2023/12/29 10:08:51;;;;;;;7.77;4.30;;;;;;;7.91;70.47;99709.06;4994396;28;20204;-64
2023/12/29 10:11:21;;;;;;;5.23;3.53;;;;;;;7.96;70.78;99718.44;4992506;28;20204;-63
2023/12/29 10:13:52;;;;;;;4.40;3.30;;;;;;;7.96;70.35;99715.03;4993973;28;20204;-60
2023/12/29 10:16:29;;;;;;;6.30;3.90;;;;;;;7.99;70.86;99709.88;4992430;28;20210;-60
2023/12/29 10:19:11;;;;;;;4.33;3.17;;;;;;;8.01;70.54;99697.88;4993524;28;20204;-63
2023/12/29 10:21:49;;;;;;;7.40;3.57;;;;;;;8.07;70.42;99700.41;4993661;28;20242;-63
2023/12/29 10:24:20;;;;;;;6.27;3.93;;;;;;;8.11;70.83;99699.53;4992289;28;20204;-61
2023/12/29 10:26:53;;;;;;;5.47;3.57;;;;;;;8.14;70.56;99696.09;4993824;28;20670;-62
2023/12/29 10:29:21;;;;;;;5.20;3.60;;;;;;;8.16;70.28;99692.63;4992856;28;20220;-60
2023/12/29 10:31:50;;;;;;;4.63;3.37;;;;;;;8.17;70.15;99699.50;4980145;28;20372;-60
2023/12/29 10:34:20;;;;;;;6.70;3.60;;;;;;;8.16;70.06;99695.22;4986374;28;20204;-61
2023/12/29 10:36:49;;;;;;;9.13;3.67;;;;;;;8.15;69.94;99665.28;4993428;28;20212;-61
2023/12/29 10:39:18;;;;;;;7.03;3.87;;;;;;;8.19;70.02;99686.66;4993675;28;20706;-60
2023/12/29 10:41:46;;;;;;;4.40;3.53;;;;;;;8.22;69.79;99677.19;4991284;28;20637;-57
2023/12/29 10:44:14;;;;;;;5.73;3.70;;;;;;;8.27;69.79;99684.00;4993700;28;20657;-55
2023/12/29 10:46:41;;;;;;;5.27;3.63;;;;;;;8.30;69.63;99704.53;4993379;28;20215;-57
2023/12/29 10:49:10;;;;;;;7.40;3.93;;;;;;;8.30;70.23;99684.84;4993395;28;20242;-62
2023/12/29 10:51:41;;;;;;;5.00;3.90;;;;;;;8.32;69.99;99684.81;4993331;28;20216;-63
2023/12/29 10:54:09;;;;;;;5.07;3.97;;;;;;;8.36;70.19;99683.94;4993141;28;20243;-63
2023/12/29 10:56:36;;;;;;;5.60;4.20;;;;;;;8.35;69.64;99687.34;4991609;28;20216;-62
2023/12/29 10:59:06;;;;;;;5.53;3.70;;;;;;;8.37;69.70;99685.66;4993291;28;20640;-54
2023/12/29 11:01:35;;;;;;;6.27;4.27;;;;;;;8.38;69.50;99689.94;4993341;28;20659;-64
2023/12/29 11:04:06;;;;;;;6.20;3.73;;;;;;;8.38;70.17;99671.97;4993129;28;20731;-62
2023/12/29 11:06:44;;;;;;;5.20;3.73;;;;;;;8.40;70.11;99675.38;4992991;28;20274;-59
2023/12/29 11:09:12;;;;;;;5.40;3.90;;;;;;;8.44;69.99;99679.63;4990729;28;20571;-62
2023/12/29 11:11:42;;;;;;;4.83;3.57;;;;;;;8.44;69.31;99677.06;4993115;28;20254;-61
2023/12/29 11:14:11;;;;;;;6.53;3.83;;;;;;;8.47;69.27;99677.03;4991375;28;20288;-63
2023/12/29 11:16:40;;;;;;;4.83;3.70;;;;;;;8.50;69.77;99660.72;4984658;28;20598;-60
2023/12/29 11:19:10;;;;;;;5.47;3.57;;;;;;;8.55;69.23;99677.81;4993096;28;20203;-58
2023/12/29 11:21:39;;;;;;;8.37;3.80;;;;;;;8.60;69.53;99668.34;4992541;28;20322;-59
2023/12/29 11:24:09;;;;;;;6.17;4.03;;;;;;;8.64;68.77;99667.44;4992862;28;20679;-58
2023/12/29 11:26:40;;;;;;;5.30;3.60;;;;;;;8.67;68.70;99654.56;4992585;28;20252;-58
2023/12/29 11:29:09;;;;;;;4.43;3.40;;;;;;;8.68;68.60;99646.00;4992537;28;20219;-57
2023/12/29 11:31:38;;;;;;;4.13;3.53;;;;;;;8.73;68.52;99645.09;4991247;28;20659;-58
2023/12/29 11:34:11;;;;;;;7.97;3.47;;;;;;;8.71;68.83;99643.41;4992452;28;20738;-59
2023/12/29 11:36:45;;;;;;;6.80;3.70;;;;;;;8.73;68.24;99650.22;4992378;28;20204;-58
2023/12/29 11:39:25;;;;;;;7.07;4.03;;;;;;;8.67;68.52;99639.16;4992508;28;20738;-57
2023/12/29 11:42:03;;;;;;;6.17;3.30;;;;;;;8.65;68.50;99624.63;4991070;28;20196;-58
2023/12/29 11:44:33;;;;;;;4.23;3.50;;;;;;;8.64;69.25;99628.06;4992551;28;20652;-59
2023/12/29 11:47:01;;;;;;;4.63;3.60;;;;;;;8.61;68.44;99618.66;4992579;28;20676;-60